sensor_id;sensor_type;location;lat;lon;timestamp;P1;durP1;ratioP1;P2;durP2;ratioP2
51618;SDS011;38518;53.164;5.430;2023-03-23T00:00:56;13.80;;;8.88;;
51618;SDS011;38518;53.164;5.430;2023-03-23T00:03:23;11.40;;;10.20;;
51618;SDS011;38518;53.164;5.430;2023-03-23T00:05:51;15.43;;;13.80;;
51618;SDS011;38518;53.164;5.430;2023-03-23T00:08:18;21.55;;;19.25;;
51618;SDS011;38518;53.164;5.430;2023-03-23T00:10:47;28.55;;;24.77;;
51618;SDS011;38518;53.164;5.430;2023-03-23T00:13:17;36.72;;;31.77;;
51618;SDS011;38518;53.164;5.430;2023-03-23T00:15:46;37.83;;;33.75;;
51618;SDS011;38518;53.164;5.430;2023-03-23T00:18:14;42.20;;;35.88;;
51618;SDS011;38518;53.164;5.430;2023-03-23T00:20:53;44.30;;;37.17;;
51618;SDS011;38518;53.164;5.430;2023-03-23T00:23:22;39.72;;;35.42;;
51618;SDS011;38518;53.164;5.430;2023-03-23T00:25:53;34.17;;;30.58;;
51618;SDS011;38518;53.164;5.430;2023-03-23T00:28:23;37.00;;;31.33;;
51618;SDS011;38518;53.164;5.430;2023-03-23T00:30:58;32.92;;;29.48;;
51618;SDS011;38518;53.164;5.430;2023-03-23T00:33:29;30.20;;;27.00;;
51618;SDS011;38518;53.164;5.430;2023-03-23T00:35:58;27.05;;;24.45;;
51618;SDS011;38518;53.164;5.430;2023-03-23T00:38:25;25.58;;;23.13;;
51618;SDS011;38518;53.164;5.430;2023-03-23T00:40:51;26.23;;;23.77;;
51618;SDS011;38518;53.164;5.430;2023-03-23T00:43:17;27.50;;;24.55;;
51618;SDS011;38518;53.164;5.430;2023-03-23T00:45:44;29.85;;;26.80;;
51618;SDS011;38518;53.164;5.430;2023-03-23T00:48:18;25.50;;;22.90;;
51618;SDS011;38518;53.164;5.430;2023-03-23T00:50:44;25.60;;;23.02;;
51618;SDS011;38518;53.164;5.430;2023-03-23T00:53:10;25.85;;;23.42;;
51618;SDS011;38518;53.164;5.430;2023-03-23T00:55:36;25.38;;;22.75;;
51618;SDS011;38518;53.164;5.430;2023-03-23T00:58:02;24.58;;;22.25;;
51618;SDS011;38518;53.164;5.430;2023-03-23T01:00:28;25.90;;;22.40;;
51618;SDS011;38518;53.164;5.430;2023-03-23T01:02:54;23.38;;;20.98;;
51618;SDS011;38518;53.164;5.430;2023-03-23T01:05:20;22.23;;;18.92;;
51618;SDS011;38518;53.164;5.430;2023-03-23T01:07:46;22.77;;;20.55;;
51618;SDS011;38518;53.164;5.430;2023-03-23T01:10:13;23.63;;;21.17;;
51618;SDS011;38518;53.164;5.430;2023-03-23T01:12:45;23.70;;;21.25;;
51618;SDS011;38518;53.164;5.430;2023-03-23T01:15:15;26.48;;;23.83;;
51618;SDS011;38518;53.164;5.430;2023-03-23T01:17:43;27.65;;;24.58;;
51618;SDS011;38518;53.164;5.430;2023-03-23T01:20:11;27.13;;;24.23;;
51618;SDS011;38518;53.164;5.430;2023-03-23T01:22:40;25.60;;;22.92;;
51618;SDS011;38518;53.164;5.430;2023-03-23T01:25:06;27.50;;;24.83;;
51618;SDS011;38518;53.164;5.430;2023-03-23T01:27:33;28.02;;;25.27;;
51618;SDS011;38518;53.164;5.430;2023-03-23T01:29:59;25.80;;;23.23;;
51618;SDS011;38518;53.164;5.430;2023-03-23T01:32:25;26.42;;;23.65;;
51618;SDS011;38518;53.164;5.430;2023-03-23T01:34:51;24.50;;;22.15;;
51618;SDS011;38518;53.164;5.430;2023-03-23T01:37:17;24.73;;;21.95;;
51618;SDS011;38518;53.164;5.430;2023-03-23T01:39:43;24.58;;;21.77;;
51618;SDS011;38518;53.164;5.430;2023-03-23T01:42:09;21.05;;;18.92;;
51618;SDS011;38518;53.164;5.430;2023-03-23T01:47:00;18.27;;;15.48;;
51618;SDS011;38518;53.164;5.430;2023-03-23T01:49:31;17.70;;;15.80;;
51618;SDS011;38518;53.164;5.430;2023-03-23T01:52:02;19.15;;;15.85;;
51618;SDS011;38518;53.164;5.430;2023-03-23T01:54:33;16.40;;;14.43;;
51618;SDS011;38518;53.164;5.430;2023-03-23T01:57:04;16.65;;;13.95;;
51618;SDS011;38518;53.164;5.430;2023-03-23T01:59:35;17.10;;;11.68;;
51618;SDS011;38518;53.164;5.430;2023-03-23T02:02:01;16.20;;;11.85;;
51618;SDS011;38518;53.164;5.430;2023-03-23T02:04:27;14.18;;;9.77;;
51618;SDS011;38518;53.164;5.430;2023-03-23T02:06:55;14.48;;;8.68;;
51618;SDS011;38518;53.164;5.430;2023-03-23T02:09:26;13.60;;;8.80;;
51618;SDS011;38518;53.164;5.430;2023-03-23T02:11:52;14.68;;;8.85;;
51618;SDS011;38518;53.164;5.430;2023-03-23T02:14:19;13.13;;;6.85;;
51618;SDS011;38518;53.164;5.430;2023-03-23T02:22:48;10.05;;;4.38;;
51618;SDS011;38518;53.164;5.430;2023-03-23T02:37:06;10.95;;;4.03;;
51618;SDS011;38518;53.164;5.430;2023-03-23T02:39:49;11.15;;;3.92;;
51618;SDS011;38518;53.164;5.430;2023-03-23T02:42:24;10.07;;;3.88;;
51618;SDS011;38518;53.164;5.430;2023-03-23T02:44:56;9.70;;;3.85;;
51618;SDS011;38518;53.164;5.430;2023-03-23T02:47:25;9.05;;;3.65;;
51618;SDS011;38518;53.164;5.430;2023-03-23T02:49:54;9.25;;;4.00;;
51618;SDS011;38518;53.164;5.430;2023-03-23T02:52:26;11.60;;;3.90;;
51618;SDS011;38518;53.164;5.430;2023-03-23T02:54:54;11.40;;;3.58;;
51618;SDS011;38518;53.164;5.430;2023-03-23T02:57:23;10.90;;;3.53;;
51618;SDS011;38518;53.164;5.430;2023-03-23T02:59:51;12.77;;;3.50;;
51618;SDS011;38518;53.164;5.430;2023-03-23T03:02:17;9.30;;;3.75;;
51618;SDS011;38518;53.164;5.430;2023-03-23T03:05:12;12.13;;;3.97;;
51618;SDS011;38518;53.164;5.430;2023-03-23T03:08:08;8.20;;;3.90;;
51618;SDS011;38518;53.164;5.430;2023-03-23T03:13:34;12.95;;;3.78;;
51618;SDS011;38518;53.164;5.430;2023-03-23T03:19:15;15.95;;;4.70;;
51618;SDS011;38518;53.164;5.430;2023-03-23T03:21:45;16.40;;;3.95;;
51618;SDS011;38518;53.164;5.430;2023-03-23T03:24:14;17.27;;;4.10;;
51618;SDS011;38518;53.164;5.430;2023-03-23T03:26:47;13.75;;;3.72;;
51618;SDS011;38518;53.164;5.430;2023-03-23T03:29:16;14.48;;;3.60;;
51618;SDS011;38518;53.164;5.430;2023-03-23T03:31:45;16.73;;;4.38;;
51618;SDS011;38518;53.164;5.430;2023-03-23T03:34:14;14.70;;;4.03;;
51618;SDS011;38518;53.164;5.430;2023-03-23T03:36:43;13.65;;;4.55;;
51618;SDS011;38518;53.164;5.430;2023-03-23T03:39:11;13.57;;;4.55;;
51618;SDS011;38518;53.164;5.430;2023-03-23T03:41:40;11.27;;;3.72;;
51618;SDS011;38518;53.164;5.430;2023-03-23T03:44:06;16.00;;;4.03;;
51618;SDS011;38518;53.164;5.430;2023-03-23T03:46:33;13.20;;;4.38;;
51618;SDS011;38518;53.164;5.430;2023-03-23T03:49:00;14.25;;;4.45;;
51618;SDS011;38518;53.164;5.430;2023-03-23T03:51:26;16.83;;;4.38;;
51618;SDS011;38518;53.164;5.430;2023-03-23T03:53:53;17.85;;;4.95;;
51618;SDS011;38518;53.164;5.430;2023-03-23T03:56:19;13.38;;;4.45;;
51618;SDS011;38518;53.164;5.430;2023-03-23T03:58:47;18.92;;;4.90;;
51618;SDS011;38518;53.164;5.430;2023-03-23T04:01:14;14.77;;;4.38;;
51618;SDS011;38518;53.164;5.430;2023-03-23T04:03:41;17.63;;;4.60;;
51618;SDS011;38518;53.164;5.430;2023-03-23T04:06:08;15.20;;;4.75;;
51618;SDS011;38518;53.164;5.430;2023-03-23T04:08:35;18.45;;;5.25;;
51618;SDS011;38518;53.164;5.430;2023-03-23T04:11:03;21.63;;;4.68;;
51618;SDS011;38518;53.164;5.430;2023-03-23T04:13:29;17.08;;;4.60;;
51618;SDS011;38518;53.164;5.430;2023-03-23T04:15:55;23.83;;;5.53;;
51618;SDS011;38518;53.164;5.430;2023-03-23T04:18:21;21.17;;;5.50;;
51618;SDS011;38518;53.164;5.430;2023-03-23T04:20:49;19.92;;;5.35;;
51618;SDS011;38518;53.164;5.430;2023-03-23T04:23:16;26.48;;;5.60;;
51618;SDS011;38518;53.164;5.430;2023-03-23T04:25:47;21.30;;;5.32;;
51618;SDS011;38518;53.164;5.430;2023-03-23T04:28:15;21.25;;;5.75;;
51618;SDS011;38518;53.164;5.430;2023-03-23T04:30:43;24.23;;;6.00;;
51618;SDS011;38518;53.164;5.430;2023-03-23T04:33:13;23.38;;;5.63;;
51618;SDS011;38518;53.164;5.430;2023-03-23T04:35:41;24.13;;;6.57;;
51618;SDS011;38518;53.164;5.430;2023-03-23T04:38:08;21.27;;;4.97;;
51618;SDS011;38518;53.164;5.430;2023-03-23T04:40:38;26.40;;;7.15;;
51618;SDS011;38518;53.164;5.430;2023-03-23T04:43:05;19.05;;;4.97;;
51618;SDS011;38518;53.164;5.430;2023-03-23T04:45:35;26.60;;;5.85;;
51618;SDS011;38518;53.164;5.430;2023-03-23T04:48:03;22.08;;;6.47;;
51618;SDS011;38518;53.164;5.430;2023-03-23T04:50:31;24.30;;;6.40;;
51618;SDS011;38518;53.164;5.430;2023-03-23T04:53:01;27.33;;;6.38;;
51618;SDS011;38518;53.164;5.430;2023-03-23T04:55:29;22.80;;;6.07;;
51618;SDS011;38518;53.164;5.430;2023-03-23T04:57:56;25.70;;;6.43;;
51618;SDS011;38518;53.164;5.430;2023-03-23T05:00:26;29.30;;;7.38;;
51618;SDS011;38518;53.164;5.430;2023-03-23T05:02:52;23.83;;;6.85;;
51618;SDS011;38518;53.164;5.430;2023-03-23T05:05:20;32.10;;;7.20;;
51618;SDS011;38518;53.164;5.430;2023-03-23T05:07:47;27.73;;;7.30;;
51618;SDS011;38518;53.164;5.430;2023-03-23T05:10:14;36.33;;;8.70;;
51618;SDS011;38518;53.164;5.430;2023-03-23T05:12:41;41.45;;;8.68;;
51618;SDS011;38518;53.164;5.430;2023-03-23T05:15:08;25.52;;;6.90;;
51618;SDS011;38518;53.164;5.430;2023-03-23T05:17:35;34.42;;;8.00;;
51618;SDS011;38518;53.164;5.430;2023-03-23T05:20:04;32.95;;;8.38;;
51618;SDS011;38518;53.164;5.430;2023-03-23T05:22:35;33.97;;;8.48;;
51618;SDS011;38518;53.164;5.430;2023-03-23T05:25:01;29.35;;;6.80;;
51618;SDS011;38518;53.164;5.430;2023-03-23T05:27:28;28.42;;;6.70;;
51618;SDS011;38518;53.164;5.430;2023-03-23T05:29:55;25.13;;;6.75;;
51618;SDS011;38518;53.164;5.430;2023-03-23T05:32:23;29.42;;;6.88;;
51618;SDS011;38518;53.164;5.430;2023-03-23T05:35:00;30.90;;;8.27;;
51618;SDS011;38518;53.164;5.430;2023-03-23T05:37:28;35.83;;;9.30;;
51618;SDS011;38518;53.164;5.430;2023-03-23T05:39:57;37.70;;;7.53;;
51618;SDS011;38518;53.164;5.430;2023-03-23T05:42:30;21.05;;;5.80;;
51618;SDS011;38518;53.164;5.430;2023-03-23T05:44:57;22.98;;;5.15;;
51618;SDS011;38518;53.164;5.430;2023-03-23T05:47:23;15.20;;;4.28;;
51618;SDS011;38518;53.164;5.430;2023-03-23T05:49:50;13.25;;;3.83;;
51618;SDS011;38518;53.164;5.430;2023-03-23T05:52:17;18.50;;;4.50;;
51618;SDS011;38518;53.164;5.430;2023-03-23T05:54:46;18.48;;;4.43;;
51618;SDS011;38518;53.164;5.430;2023-03-23T05:57:12;21.35;;;4.38;;
51618;SDS011;38518;53.164;5.430;2023-03-23T05:59:38;20.38;;;4.55;;
51618;SDS011;38518;53.164;5.430;2023-03-23T06:02:04;20.23;;;4.82;;
51618;SDS011;38518;53.164;5.430;2023-03-23T06:04:30;21.17;;;5.57;;
51618;SDS011;38518;53.164;5.430;2023-03-23T06:06:59;25.77;;;5.78;;
51618;SDS011;38518;53.164;5.430;2023-03-23T06:09:26;26.27;;;5.88;;
51618;SDS011;38518;53.164;5.430;2023-03-23T06:11:52;26.77;;;6.18;;
51618;SDS011;38518;53.164;5.430;2023-03-23T06:14:17;23.00;;;6.10;;
51618;SDS011;38518;53.164;5.430;2023-03-23T06:16:43;26.17;;;6.07;;
51618;SDS011;38518;53.164;5.430;2023-03-23T06:19:09;22.23;;;5.32;;
51618;SDS011;38518;53.164;5.430;2023-03-23T06:21:36;18.33;;;4.50;;
51618;SDS011;38518;53.164;5.430;2023-03-23T06:24:02;23.25;;;5.45;;
51618;SDS011;38518;53.164;5.430;2023-03-23T06:26:35;20.17;;;5.15;;
51618;SDS011;38518;53.164;5.430;2023-03-23T06:29:03;24.75;;;6.82;;
51618;SDS011;38518;53.164;5.430;2023-03-23T06:31:36;32.75;;;6.80;;
51618;SDS011;38518;53.164;5.430;2023-03-23T06:34:06;35.28;;;6.45;;
51618;SDS011;38518;53.164;5.430;2023-03-23T06:36:32;31.50;;;7.55;;
51618;SDS011;38518;53.164;5.430;2023-03-23T06:38:57;33.60;;;8.15;;
51618;SDS011;38518;53.164;5.430;2023-03-23T06:41:23;39.15;;;8.50;;
51618;SDS011;38518;53.164;5.430;2023-03-23T06:43:49;35.83;;;8.65;;
51618;SDS011;38518;53.164;5.430;2023-03-23T06:46:15;36.80;;;8.30;;
51618;SDS011;38518;53.164;5.430;2023-03-23T06:48:41;41.20;;;8.02;;
51618;SDS011;38518;53.164;5.430;2023-03-23T06:51:07;31.75;;;8.20;;
51618;SDS011;38518;53.164;5.430;2023-03-23T06:53:33;34.83;;;8.73;;
51618;SDS011;38518;53.164;5.430;2023-03-23T06:55:59;40.00;;;8.73;;
51618;SDS011;38518;53.164;5.430;2023-03-23T06:58:26;51.22;;;9.45;;
51618;SDS011;38518;53.164;5.430;2023-03-23T07:00:55;40.15;;;9.65;;
51618;SDS011;38518;53.164;5.430;2023-03-23T07:03:22;38.30;;;8.68;;
51618;SDS011;38518;53.164;5.430;2023-03-23T07:05:48;45.55;;;11.10;;
51618;SDS011;38518;53.164;5.430;2023-03-23T07:08:14;39.65;;;9.32;;
51618;SDS011;38518;53.164;5.430;2023-03-23T07:10:41;37.53;;;9.38;;
51618;SDS011;38518;53.164;5.430;2023-03-23T07:13:07;43.65;;;9.80;;
51618;SDS011;38518;53.164;5.430;2023-03-23T07:15:33;51.70;;;9.95;;
51618;SDS011;38518;53.164;5.430;2023-03-23T07:17:58;34.65;;;8.95;;
51618;SDS011;38518;53.164;5.430;2023-03-23T07:20:24;33.75;;;8.68;;
51618;SDS011;38518;53.164;5.430;2023-03-23T07:22:50;36.33;;;9.43;;
51618;SDS011;38518;53.164;5.430;2023-03-23T07:25:16;34.13;;;8.10;;
51618;SDS011;38518;53.164;5.430;2023-03-23T07:27:44;29.48;;;8.18;;
51618;SDS011;38518;53.164;5.430;2023-03-23T07:30:11;35.67;;;7.82;;
51618;SDS011;38518;53.164;5.430;2023-03-23T07:32:37;32.15;;;9.45;;
51618;SDS011;38518;53.164;5.430;2023-03-23T07:35:03;28.27;;;6.63;;
51618;SDS011;38518;53.164;5.430;2023-03-23T07:37:29;32.95;;;8.35;;
51618;SDS011;38518;53.164;5.430;2023-03-23T07:39:57;40.80;;;8.30;;
51618;SDS011;38518;53.164;5.430;2023-03-23T07:42:23;32.40;;;7.40;;
51618;SDS011;38518;53.164;5.430;2023-03-23T07:44:49;35.63;;;8.02;;
51618;SDS011;38518;53.164;5.430;2023-03-23T07:47:14;35.45;;;8.65;;
51618;SDS011;38518;53.164;5.430;2023-03-23T07:49:40;35.42;;;8.43;;
51618;SDS011;38518;53.164;5.430;2023-03-23T07:52:06;29.77;;;7.70;;
51618;SDS011;38518;53.164;5.430;2023-03-23T07:54:32;36.15;;;8.02;;
51618;SDS011;38518;53.164;5.430;2023-03-23T07:56:58;28.35;;;7.53;;
51618;SDS011;38518;53.164;5.430;2023-03-23T07:59:23;38.28;;;7.97;;
51618;SDS011;38518;53.164;5.430;2023-03-23T08:01:49;31.17;;;7.72;;
51618;SDS011;38518;53.164;5.430;2023-03-23T08:04:15;30.77;;;7.53;;
51618;SDS011;38518;53.164;5.430;2023-03-23T08:06:41;24.33;;;7.03;;
51618;SDS011;38518;53.164;5.430;2023-03-23T08:09:07;28.70;;;8.25;;
51618;SDS011;38518;53.164;5.430;2023-03-23T08:11:37;35.08;;;8.43;;
51618;SDS011;38518;53.164;5.430;2023-03-23T08:14:03;24.92;;;7.35;;
51618;SDS011;38518;53.164;5.430;2023-03-23T08:16:30;30.92;;;9.52;;
51618;SDS011;38518;53.164;5.430;2023-03-23T08:18:57;33.88;;;7.95;;
51618;SDS011;38518;53.164;5.430;2023-03-23T08:21:26;27.50;;;7.07;;
51618;SDS011;38518;53.164;5.430;2023-03-23T08:23:52;31.50;;;7.28;;
51618;SDS011;38518;53.164;5.430;2023-03-23T08:26:18;24.50;;;7.57;;
51618;SDS011;38518;53.164;5.430;2023-03-23T08:28:44;25.92;;;7.57;;
51618;SDS011;38518;53.164;5.430;2023-03-23T08:31:11;29.58;;;7.57;;
51618;SDS011;38518;53.164;5.430;2023-03-23T08:33:38;37.45;;;8.40;;
51618;SDS011;38518;53.164;5.430;2023-03-23T08:36:06;31.35;;;7.70;;
51618;SDS011;38518;53.164;5.430;2023-03-23T08:38:34;24.85;;;6.78;;
51618;SDS011;38518;53.164;5.430;2023-03-23T08:41:02;31.83;;;7.65;;
51618;SDS011;38518;53.164;5.430;2023-03-23T08:43:29;26.88;;;6.82;;
51618;SDS011;38518;53.164;5.430;2023-03-23T08:45:57;25.48;;;6.53;;
51618;SDS011;38518;53.164;5.430;2023-03-23T08:48:24;32.58;;;7.85;;
51618;SDS011;38518;53.164;5.430;2023-03-23T08:50:49;29.60;;;8.30;;
51618;SDS011;38518;53.164;5.430;2023-03-23T08:53:17;25.98;;;7.05;;
51618;SDS011;38518;53.164;5.430;2023-03-23T08:55:45;32.20;;;8.13;;
51618;SDS011;38518;53.164;5.430;2023-03-23T08:58:12;31.80;;;8.10;;
51618;SDS011;38518;53.164;5.430;2023-03-23T09:00:38;30.65;;;9.65;;
51618;SDS011;38518;53.164;5.430;2023-03-23T09:03:05;24.05;;;6.93;;
51618;SDS011;38518;53.164;5.430;2023-03-23T09:05:30;32.78;;;8.10;;
51618;SDS011;38518;53.164;5.430;2023-03-23T09:07:57;31.48;;;7.53;;
51618;SDS011;38518;53.164;5.430;2023-03-23T09:10:24;31.77;;;7.50;;
51618;SDS011;38518;53.164;5.430;2023-03-23T09:12:52;34.55;;;8.13;;
51618;SDS011;38518;53.164;5.430;2023-03-23T09:15:18;28.38;;;8.20;;
51618;SDS011;38518;53.164;5.430;2023-03-23T09:17:45;28.23;;;7.47;;
51618;SDS011;38518;53.164;5.430;2023-03-23T09:20:16;31.70;;;7.97;;
51618;SDS011;38518;53.164;5.430;2023-03-23T09:22:49;30.80;;;8.30;;
51618;SDS011;38518;53.164;5.430;2023-03-23T09:25:17;31.83;;;7.38;;
51618;SDS011;38518;53.164;5.430;2023-03-23T09:27:46;23.15;;;6.70;;
51618;SDS011;38518;53.164;5.430;2023-03-23T09:30:17;23.65;;;6.97;;
51618;SDS011;38518;53.164;5.430;2023-03-23T09:32:44;23.10;;;6.78;;
51618;SDS011;38518;53.164;5.430;2023-03-23T09:35:10;26.52;;;6.45;;
51618;SDS011;38518;53.164;5.430;2023-03-23T09:37:41;22.77;;;7.28;;
51618;SDS011;38518;53.164;5.430;2023-03-23T09:40:16;24.95;;;7.43;;
51618;SDS011;38518;53.164;5.430;2023-03-23T09:45:25;34.60;;;8.15;;
51618;SDS011;38518;53.164;5.430;2023-03-23T09:48:03;30.45;;;7.78;;
51618;SDS011;38518;53.164;5.430;2023-03-23T09:50:52;27.23;;;7.78;;
51618;SDS011;38518;53.164;5.430;2023-03-23T09:53:45;25.70;;;7.15;;
51618;SDS011;38518;53.164;5.430;2023-03-23T09:56:15;30.45;;;8.00;;
51618;SDS011;38518;53.164;5.430;2023-03-23T10:01:35;25.85;;;6.47;;
51618;SDS011;38518;53.164;5.430;2023-03-23T10:04:05;21.90;;;6.28;;
51618;SDS011;38518;53.164;5.430;2023-03-23T10:06:37;22.80;;;6.65;;
51618;SDS011;38518;53.164;5.430;2023-03-23T10:09:04;30.67;;;7.60;;
51618;SDS011;38518;53.164;5.430;2023-03-23T10:16:33;25.63;;;6.63;;
51618;SDS011;38518;53.164;5.430;2023-03-23T10:19:09;23.80;;;6.35;;
51618;SDS011;38518;53.164;5.430;2023-03-23T10:21:56;22.08;;;6.45;;
51618;SDS011;38518;53.164;5.430;2023-03-23T10:24:32;25.20;;;6.00;;
51618;SDS011;38518;53.164;5.430;2023-03-23T10:27:32;27.80;;;6.80;;
51618;SDS011;38518;53.164;5.430;2023-03-23T10:35:22;24.65;;;6.85;;
51618;SDS011;38518;53.164;5.430;2023-03-23T10:37:58;19.92;;;6.32;;
51618;SDS011;38518;53.164;5.430;2023-03-23T10:40:29;22.63;;;5.43;;
51618;SDS011;38518;53.164;5.430;2023-03-23T10:43:00;24.60;;;6.45;;
51618;SDS011;38518;53.164;5.430;2023-03-23T10:45:27;23.75;;;5.78;;
51618;SDS011;38518;53.164;5.430;2023-03-23T10:48:08;17.95;;;5.63;;
51618;SDS011;38518;53.164;5.430;2023-03-23T10:50:59;17.75;;;5.20;;
51618;SDS011;38518;53.164;5.430;2023-03-23T10:53:43;19.67;;;5.07;;
51618;SDS011;38518;53.164;5.430;2023-03-23T10:56:45;25.27;;;6.90;;
51618;SDS011;38518;53.164;5.430;2023-03-23T10:59:18;19.40;;;5.30;;
51618;SDS011;38518;53.164;5.430;2023-03-23T11:01:57;23.65;;;6.28;;
51618;SDS011;38518;53.164;5.430;2023-03-23T11:04:28;18.42;;;5.25;;
51618;SDS011;38518;53.164;5.430;2023-03-23T11:07:00;16.55;;;4.55;;
51618;SDS011;38518;53.164;5.430;2023-03-23T11:09:40;20.48;;;5.90;;
51618;SDS011;38518;53.164;5.430;2023-03-23T11:12:20;20.40;;;5.85;;
51618;SDS011;38518;53.164;5.430;2023-03-23T11:14:48;19.17;;;5.55;;
51618;SDS011;38518;53.164;5.430;2023-03-23T11:17:24;20.55;;;5.28;;
51618;SDS011;38518;53.164;5.430;2023-03-23T11:19:54;17.23;;;5.10;;
51618;SDS011;38518;53.164;5.430;2023-03-23T11:22:25;23.13;;;6.40;;
51618;SDS011;38518;53.164;5.430;2023-03-23T11:24:54;19.35;;;5.00;;
51618;SDS011;38518;53.164;5.430;2023-03-23T11:27:25;21.17;;;5.50;;
51618;SDS011;38518;53.164;5.430;2023-03-23T11:29:58;16.10;;;4.82;;
51618;SDS011;38518;53.164;5.430;2023-03-23T11:32:33;20.35;;;5.78;;
51618;SDS011;38518;53.164;5.430;2023-03-23T11:35:02;17.23;;;5.32;;
51618;SDS011;38518;53.164;5.430;2023-03-23T11:37:35;20.27;;;5.80;;
51618;SDS011;38518;53.164;5.430;2023-03-23T11:42:43;18.85;;;5.03;;
51618;SDS011;38518;53.164;5.430;2023-03-23T11:50:52;18.88;;;5.78;;
51618;SDS011;38518;53.164;5.430;2023-03-23T11:53:33;19.92;;;5.68;;
51618;SDS011;38518;53.164;5.430;2023-03-23T11:56:25;18.73;;;4.95;;
51618;SDS011;38518;53.164;5.430;2023-03-23T12:24:41;19.13;;;5.53;;
51618;SDS011;38518;53.164;5.430;2023-03-23T12:30:11;16.50;;;4.95;;
51618;SDS011;38518;53.164;5.430;2023-03-23T12:52:21;18.38;;;5.47;;
51618;SDS011;38518;53.164;5.430;2023-03-23T12:55:00;18.10;;;5.10;;
51618;SDS011;38518;53.164;5.430;2023-03-23T12:58:07;16.35;;;5.35;;
51618;SDS011;38518;53.164;5.430;2023-03-23T13:03:52;26.70;;;6.65;;
51618;SDS011;38518;53.164;5.430;2023-03-23T13:06:52;20.75;;;5.57;;
51618;SDS011;38518;53.164;5.430;2023-03-23T13:12:04;15.10;;;4.78;;
51618;SDS011;38518;53.164;5.430;2023-03-23T13:22:59;17.83;;;5.47;;
51618;SDS011;38518;53.164;5.430;2023-03-23T13:25:38;13.90;;;4.63;;
51618;SDS011;38518;53.164;5.430;2023-03-23T13:28:15;19.27;;;5.22;;
51618;SDS011;38518;53.164;5.430;2023-03-23T13:30:54;13.50;;;4.65;;
51618;SDS011;38518;53.164;5.430;2023-03-23T13:33:25;15.38;;;4.53;;
51618;SDS011;38518;53.164;5.430;2023-03-23T13:35:54;15.38;;;5.07;;
51618;SDS011;38518;53.164;5.430;2023-03-23T13:38:26;16.63;;;4.80;;
51618;SDS011;38518;53.164;5.430;2023-03-23T13:43:31;18.58;;;5.25;;
51618;SDS011;38518;53.164;5.430;2023-03-23T13:46:10;17.20;;;5.47;;
51618;SDS011;38518;53.164;5.430;2023-03-23T13:48:51;17.90;;;4.53;;
51618;SDS011;38518;53.164;5.430;2023-03-23T13:51:33;17.52;;;4.82;;
51618;SDS011;38518;53.164;5.430;2023-03-23T13:56:55;14.80;;;4.47;;
51618;SDS011;38518;53.164;5.430;2023-03-23T14:01:51;15.55;;;4.88;;
51618;SDS011;38518;53.164;5.430;2023-03-23T14:04:19;13.68;;;4.50;;
51618;SDS011;38518;53.164;5.430;2023-03-23T14:06:46;16.10;;;4.38;;
51618;SDS011;38518;53.164;5.430;2023-03-23T14:12:05;19.80;;;4.72;;
51618;SDS011;38518;53.164;5.430;2023-03-23T14:14:41;12.70;;;4.15;;
51618;SDS011;38518;53.164;5.430;2023-03-23T14:19:48;14.20;;;4.38;;
51618;SDS011;38518;53.164;5.430;2023-03-23T14:22:18;12.73;;;4.20;;
51618;SDS011;38518;53.164;5.430;2023-03-23T14:24:47;17.38;;;4.85;;
51618;SDS011;38518;53.164;5.430;2023-03-23T14:27:17;19.65;;;4.43;;
51618;SDS011;38518;53.164;5.430;2023-03-23T14:29:45;16.73;;;4.65;;
51618;SDS011;38518;53.164;5.430;2023-03-23T14:32:22;13.45;;;4.10;;
51618;SDS011;38518;53.164;5.430;2023-03-23T14:34:51;14.05;;;4.10;;
51618;SDS011;38518;53.164;5.430;2023-03-23T14:37:18;15.77;;;4.28;;
51618;SDS011;38518;53.164;5.430;2023-03-23T14:39:55;17.70;;;5.00;;
51618;SDS011;38518;53.164;5.430;2023-03-23T14:42:32;13.00;;;4.47;;
51618;SDS011;38518;53.164;5.430;2023-03-23T14:44:59;12.77;;;4.95;;
51618;SDS011;38518;53.164;5.430;2023-03-23T14:47:30;20.33;;;4.68;;
51618;SDS011;38518;53.164;5.430;2023-03-23T14:50:02;17.15;;;4.72;;
51618;SDS011;38518;53.164;5.430;2023-03-23T14:52:33;16.30;;;4.18;;
51618;SDS011;38518;53.164;5.430;2023-03-23T14:55:34;13.20;;;3.92;;
51618;SDS011;38518;53.164;5.430;2023-03-23T14:57:56;13.88;;;4.45;;
51618;SDS011;38518;53.164;5.430;2023-03-23T15:00:37;10.98;;;3.63;;
51618;SDS011;38518;53.164;5.430;2023-03-23T15:03:09;14.05;;;3.78;;
51618;SDS011;38518;53.164;5.430;2023-03-23T15:05:41;18.50;;;4.00;;
51618;SDS011;38518;53.164;5.430;2023-03-23T15:08:15;15.77;;;4.72;;
51618;SDS011;38518;53.164;5.430;2023-03-23T15:10:59;17.52;;;5.00;;
51618;SDS011;38518;53.164;5.430;2023-03-23T15:13:32;15.82;;;4.22;;
51618;SDS011;38518;53.164;5.430;2023-03-23T15:16:06;15.80;;;4.70;;
51618;SDS011;38518;53.164;5.430;2023-03-23T15:18:38;13.63;;;4.82;;
51618;SDS011;38518;53.164;5.430;2023-03-23T15:21:11;18.77;;;5.72;;
51618;SDS011;38518;53.164;5.430;2023-03-23T15:23:45;22.75;;;5.40;;
51618;SDS011;38518;53.164;5.430;2023-03-23T15:26:33;20.35;;;5.45;;
51618;SDS011;38518;53.164;5.430;2023-03-23T15:29:18;18.75;;;5.95;;
51618;SDS011;38518;53.164;5.430;2023-03-23T15:31:48;19.40;;;5.28;;
51618;SDS011;38518;53.164;5.430;2023-03-23T15:37:04;23.13;;;5.88;;
51618;SDS011;38518;53.164;5.430;2023-03-23T15:39:40;24.85;;;6.53;;
51618;SDS011;38518;53.164;5.430;2023-03-23T15:42:06;19.75;;;5.40;;
51618;SDS011;38518;53.164;5.430;2023-03-23T15:44:44;16.90;;;4.80;;
51618;SDS011;38518;53.164;5.430;2023-03-23T15:47:20;18.23;;;4.55;;
51618;SDS011;38518;53.164;5.430;2023-03-23T15:49:46;21.08;;;6.22;;
51618;SDS011;38518;53.164;5.430;2023-03-23T15:52:23;17.92;;;5.05;;
51618;SDS011;38518;53.164;5.430;2023-03-23T15:54:50;20.60;;;6.10;;
51618;SDS011;38518;53.164;5.430;2023-03-23T15:57:16;22.40;;;5.85;;
51618;SDS011;38518;53.164;5.430;2023-03-23T15:59:41;23.38;;;6.20;;
51618;SDS011;38518;53.164;5.430;2023-03-23T16:02:10;21.85;;;5.97;;
51618;SDS011;38518;53.164;5.430;2023-03-23T16:04:46;21.83;;;5.72;;
51618;SDS011;38518;53.164;5.430;2023-03-23T16:07:12;27.67;;;6.85;;
51618;SDS011;38518;53.164;5.430;2023-03-23T16:09:39;25.75;;;6.80;;
51618;SDS011;38518;53.164;5.430;2023-03-23T16:12:11;26.38;;;6.68;;
51618;SDS011;38518;53.164;5.430;2023-03-23T16:14:38;28.25;;;6.30;;
51618;SDS011;38518;53.164;5.430;2023-03-23T16:17:04;25.77;;;6.40;;
51618;SDS011;38518;53.164;5.430;2023-03-23T16:19:30;25.80;;;7.07;;
51618;SDS011;38518;53.164;5.430;2023-03-23T16:21:57;27.88;;;6.82;;
51618;SDS011;38518;53.164;5.430;2023-03-23T16:24:22;26.75;;;6.65;;
51618;SDS011;38518;53.164;5.430;2023-03-23T16:26:48;35.13;;;7.80;;
51618;SDS011;38518;53.164;5.430;2023-03-23T16:29:15;19.60;;;6.03;;
51618;SDS011;38518;53.164;5.430;2023-03-23T16:31:41;25.35;;;7.68;;
51618;SDS011;38518;53.164;5.430;2023-03-23T16:34:07;25.98;;;7.78;;
51618;SDS011;38518;53.164;5.430;2023-03-23T16:36:33;24.80;;;6.93;;
51618;SDS011;38518;53.164;5.430;2023-03-23T16:38:59;25.20;;;6.28;;
51618;SDS011;38518;53.164;5.430;2023-03-23T16:41:25;23.73;;;6.63;;
51618;SDS011;38518;53.164;5.430;2023-03-23T16:43:51;25.83;;;6.85;;
51618;SDS011;38518;53.164;5.430;2023-03-23T16:46:16;28.35;;;7.45;;
51618;SDS011;38518;53.164;5.430;2023-03-23T16:48:42;23.80;;;6.68;;
51618;SDS011;38518;53.164;5.430;2023-03-23T16:51:08;23.30;;;6.18;;
51618;SDS011;38518;53.164;5.430;2023-03-23T16:53:34;24.40;;;5.85;;
51618;SDS011;38518;53.164;5.430;2023-03-23T16:56:01;29.75;;;7.32;;
51618;SDS011;38518;53.164;5.430;2023-03-23T16:58:27;22.38;;;5.93;;